sensor_id;sensor_type;location;lat;lon;timestamp;P1;durP1;ratioP1;P2;durP2;ratioP2
49101;SDS011;34913;47.520;19.186;2023-05-10T00:01:42;5.72;;;2.10;;
49101;SDS011;34913;47.520;19.186;2023-05-10T00:04:08;3.40;;;1.80;;
49101;SDS011;34913;47.520;19.186;2023-05-10T00:06:33;3.22;;;2.05;;
49101;SDS011;34913;47.520;19.186;2023-05-10T00:08:59;2.42;;;1.95;;
49101;SDS011;34913;47.520;19.186;2023-05-10T00:11:24;2.03;;;1.83;;
49101;SDS011;34913;47.520;19.186;2023-05-10T00:13:50;4.32;;;2.13;;
49101;SDS011;34913;47.520;19.186;2023-05-10T00:16:15;2.38;;;2.00;;
49101;SDS011;34913;47.520;19.186;2023-05-10T00:18:41;2.45;;;1.95;;
49101;SDS011;34913;47.520;19.186;2023-05-10T00:21:06;2.78;;;2.17;;
49101;SDS011;34913;47.520;19.186;2023-05-10T00:23:32;3.13;;;2.05;;
49101;SDS011;34913;47.520;19.186;2023-05-10T00:25:57;3.55;;;2.30;;
49101;SDS011;34913;47.520;19.186;2023-05-10T00:28:23;2.97;;;2.38;;
49101;SDS011;34913;47.520;19.186;2023-05-10T00:30:48;2.60;;;2.00;;
49101;SDS011;34913;47.520;19.186;2023-05-10T00:33:14;3.65;;;2.28;;
49101;SDS011;34913;47.520;19.186;2023-05-10T00:35:39;3.10;;;2.20;;
49101;SDS011;34913;47.520;19.186;2023-05-10T00:38:05;4.05;;;2.22;;
49101;SDS011;34913;47.520;19.186;2023-05-10T00:40:30;5.72;;;2.15;;
49101;SDS011;34913;47.520;19.186;2023-05-10T00:42:56;2.75;;;2.15;;
49101;SDS011;34913;47.520;19.186;2023-05-10T00:45:23;2.67;;;2.25;;
49101;SDS011;34913;47.520;19.186;2023-05-10T00:47:48;3.53;;;2.20;;
49101;SDS011;34913;47.520;19.186;2023-05-10T00:50:14;3.30;;;2.33;;
49101;SDS011;34913;47.520;19.186;2023-05-10T00:52:40;3.45;;;2.47;;
49101;SDS011;34913;47.520;19.186;2023-05-10T00:55:07;3.63;;;2.10;;
49101;SDS011;34913;47.520;19.186;2023-05-10T00:57:34;3.10;;;2.40;;
49101;SDS011;34913;47.520;19.186;2023-05-10T00:59:59;3.33;;;2.35;;
49101;SDS011;34913;47.520;19.186;2023-05-10T01:02:25;5.13;;;2.40;;
49101;SDS011;34913;47.520;19.186;2023-05-10T01:04:50;6.40;;;2.63;;
49101;SDS011;34913;47.520;19.186;2023-05-10T01:07:16;4.07;;;2.38;;
49101;SDS011;34913;47.520;19.186;2023-05-10T01:09:42;4.32;;;2.47;;
49101;SDS011;34913;47.520;19.186;2023-05-10T01:12:07;3.20;;;2.05;;
49101;SDS011;34913;47.520;19.186;2023-05-10T01:14:33;3.28;;;2.40;;
49101;SDS011;34913;47.520;19.186;2023-05-10T01:17:01;4.25;;;2.53;;
49101;SDS011;34913;47.520;19.186;2023-05-10T01:19:29;3.75;;;2.08;;
49101;SDS011;34913;47.520;19.186;2023-05-10T01:24:53;3.95;;;2.55;;
49101;SDS011;34913;47.520;19.186;2023-05-10T01:33:30;5.00;;;2.28;;
49101;SDS011;34913;47.520;19.186;2023-05-10T01:36:19;3.13;;;2.25;;
49101;SDS011;34913;47.520;19.186;2023-05-10T01:39:09;2.58;;;2.05;;
49101;SDS011;34913;47.520;19.186;2023-05-10T01:45:00;2.67;;;2.25;;
49101;SDS011;34913;47.520;19.186;2023-05-10T01:47:37;2.85;;;2.25;;
49101;SDS011;34913;47.520;19.186;2023-05-10T01:50:06;2.83;;;2.30;;
49101;SDS011;34913;47.520;19.186;2023-05-10T01:52:42;5.10;;;2.67;;
49101;SDS011;34913;47.520;19.186;2023-05-10T01:55:13;6.28;;;2.45;;
49101;SDS011;34913;47.520;19.186;2023-05-10T01:57:42;3.97;;;2.15;;
49101;SDS011;34913;47.520;19.186;2023-05-10T02:00:10;5.20;;;2.42;;
49101;SDS011;34913;47.520;19.186;2023-05-10T02:02:37;2.92;;;2.38;;
49101;SDS011;34913;47.520;19.186;2023-05-10T02:05:05;2.58;;;2.38;;
49101;SDS011;34913;47.520;19.186;2023-05-10T02:07:33;3.75;;;2.28;;
49101;SDS011;34913;47.520;19.186;2023-05-10T02:10:01;3.75;;;2.50;;
49101;SDS011;34913;47.520;19.186;2023-05-10T02:12:29;3.45;;;2.63;;
49101;SDS011;34913;47.520;19.186;2023-05-10T02:14:59;5.45;;;2.80;;
49101;SDS011;34913;47.520;19.186;2023-05-10T02:17:27;4.45;;;2.33;;
49101;SDS011;34913;47.520;19.186;2023-05-10T02:19:55;2.70;;;2.47;;
49101;SDS011;34913;47.520;19.186;2023-05-10T02:22:22;3.70;;;2.38;;
49101;SDS011;34913;47.520;19.186;2023-05-10T02:24:49;4.55;;;2.60;;
49101;SDS011;34913;47.520;19.186;2023-05-10T02:27:15;4.78;;;2.40;;
49101;SDS011;34913;47.520;19.186;2023-05-10T02:29:42;3.08;;;2.53;;
49101;SDS011;34913;47.520;19.186;2023-05-10T02:32:09;4.32;;;2.60;;
49101;SDS011;34913;47.520;19.186;2023-05-10T02:34:36;3.95;;;2.60;;
49101;SDS011;34913;47.520;19.186;2023-05-10T02:37:01;5.28;;;2.60;;
49101;SDS011;34913;47.520;19.186;2023-05-10T02:39:27;4.50;;;2.85;;
49101;SDS011;34913;47.520;19.186;2023-05-10T02:41:54;3.17;;;2.40;;
49101;SDS011;34913;47.520;19.186;2023-05-10T02:44:20;5.55;;;2.90;;
49101;SDS011;34913;47.520;19.186;2023-05-10T02:46:48;4.25;;;2.35;;
49101;SDS011;34913;47.520;19.186;2023-05-10T02:49:13;3.13;;;2.30;;
49101;SDS011;34913;47.520;19.186;2023-05-10T02:51:41;5.82;;;2.28;;
49101;SDS011;34913;47.520;19.186;2023-05-10T02:54:12;3.13;;;2.50;;
49101;SDS011;34913;47.520;19.186;2023-05-10T02:56:47;3.80;;;2.25;;
49101;SDS011;34913;47.520;19.186;2023-05-10T02:59:15;4.25;;;2.80;;
49101;SDS011;34913;47.520;19.186;2023-05-10T03:01:41;3.08;;;2.50;;
49101;SDS011;34913;47.520;19.186;2023-05-10T03:04:07;5.07;;;2.38;;
49101;SDS011;34913;47.520;19.186;2023-05-10T03:06:32;4.05;;;2.30;;
49101;SDS011;34913;47.520;19.186;2023-05-10T03:08:58;4.13;;;2.60;;
49101;SDS011;34913;47.520;19.186;2023-05-10T03:14:21;3.58;;;2.30;;
49101;SDS011;34913;47.520;19.186;2023-05-10T03:17:11;4.15;;;2.80;;
49101;SDS011;34913;47.520;19.186;2023-05-10T03:19:56;3.58;;;2.30;;
49101;SDS011;34913;47.520;19.186;2023-05-10T03:22:47;3.00;;;2.70;;
49101;SDS011;34913;47.520;19.186;2023-05-10T03:25:15;4.70;;;2.47;;
49101;SDS011;34913;47.520;19.186;2023-05-10T03:27:43;3.15;;;2.55;;
49101;SDS011;34913;47.520;19.186;2023-05-10T03:30:10;4.85;;;2.83;;
49101;SDS011;34913;47.520;19.186;2023-05-10T03:32:37;4.88;;;3.00;;
49101;SDS011;34913;47.520;19.186;2023-05-10T03:35:09;3.42;;;3.13;;
49101;SDS011;34913;47.520;19.186;2023-05-10T03:37:37;4.07;;;3.13;;
49101;SDS011;34913;47.520;19.186;2023-05-10T03:40:03;3.65;;;3.05;;
49101;SDS011;34913;47.520;19.186;2023-05-10T03:42:29;3.70;;;3.00;;
49101;SDS011;34913;47.520;19.186;2023-05-10T03:44:54;4.10;;;3.30;;
49101;SDS011;34913;47.520;19.186;2023-05-10T03:47:20;4.93;;;2.90;;
49101;SDS011;34913;47.520;19.186;2023-05-10T03:49:45;7.50;;;3.47;;
49101;SDS011;34913;47.520;19.186;2023-05-10T03:52:11;3.78;;;2.80;;
49101;SDS011;34913;47.520;19.186;2023-05-10T03:54:36;5.43;;;3.15;;
49101;SDS011;34913;47.520;19.186;2023-05-10T03:57:02;4.07;;;3.42;;
49101;SDS011;34913;47.520;19.186;2023-05-10T03:59:28;3.65;;;2.95;;
49101;SDS011;34913;47.520;19.186;2023-05-10T04:01:54;4.82;;;2.92;;
49101;SDS011;34913;47.520;19.186;2023-05-10T04:04:19;3.15;;;2.80;;
49101;SDS011;34913;47.520;19.186;2023-05-10T04:06:46;3.70;;;3.20;;
49101;SDS011;34913;47.520;19.186;2023-05-10T04:09:11;4.25;;;3.20;;
49101;SDS011;34913;47.520;19.186;2023-05-10T04:11:37;8.23;;;3.33;;
49101;SDS011;34913;47.520;19.186;2023-05-10T04:14:02;3.33;;;3.03;;
49101;SDS011;34913;47.520;19.186;2023-05-10T04:16:28;4.20;;;3.03;;
49101;SDS011;34913;47.520;19.186;2023-05-10T04:18:53;6.55;;;3.40;;
49101;SDS011;34913;47.520;19.186;2023-05-10T04:21:19;6.93;;;2.97;;
49101;SDS011;34913;47.520;19.186;2023-05-10T04:23:44;5.72;;;3.17;;
49101;SDS011;34913;47.520;19.186;2023-05-10T04:26:10;5.25;;;3.47;;
49101;SDS011;34913;47.520;19.186;2023-05-10T04:28:35;6.60;;;3.45;;
49101;SDS011;34913;47.520;19.186;2023-05-10T04:31:01;4.75;;;3.83;;
49101;SDS011;34913;47.520;19.186;2023-05-10T04:33:30;6.15;;;3.35;;
49101;SDS011;34913;47.520;19.186;2023-05-10T04:35:57;4.65;;;3.67;;
49101;SDS011;34913;47.520;19.186;2023-05-10T04:38:22;4.45;;;3.28;;
49101;SDS011;34913;47.520;19.186;2023-05-10T04:40:48;6.72;;;3.60;;
49101;SDS011;34913;47.520;19.186;2023-05-10T04:43:13;5.05;;;3.30;;
49101;SDS011;34913;47.520;19.186;2023-05-10T04:45:39;6.90;;;3.40;;
49101;SDS011;34913;47.520;19.186;2023-05-10T04:48:05;5.60;;;3.40;;
49101;SDS011;34913;47.520;19.186;2023-05-10T04:50:31;7.05;;;3.22;;
49101;SDS011;34913;47.520;19.186;2023-05-10T04:52:56;7.85;;;4.00;;
49101;SDS011;34913;47.520;19.186;2023-05-10T04:55:22;4.18;;;3.78;;
49101;SDS011;34913;47.520;19.186;2023-05-10T04:57:47;4.53;;;4.07;;
49101;SDS011;34913;47.520;19.186;2023-05-10T05:00:13;7.57;;;3.83;;
49101;SDS011;34913;47.520;19.186;2023-05-10T05:02:41;7.05;;;3.65;;
49101;SDS011;34913;47.520;19.186;2023-05-10T05:05:10;6.50;;;3.63;;
49101;SDS011;34913;47.520;19.186;2023-05-10T05:07:36;4.97;;;3.97;;
49101;SDS011;34913;47.520;19.186;2023-05-10T05:10:03;6.28;;;3.83;;
49101;SDS011;34913;47.520;19.186;2023-05-10T05:12:32;4.45;;;3.75;;
49101;SDS011;34913;47.520;19.186;2023-05-10T05:14:58;6.03;;;3.58;;
49101;SDS011;34913;47.520;19.186;2023-05-10T05:17:24;6.63;;;3.97;;
49101;SDS011;34913;47.520;19.186;2023-05-10T05:19:50;7.68;;;3.45;;
49101;SDS011;34913;47.520;19.186;2023-05-10T05:22:15;5.55;;;3.10;;
49101;SDS011;34913;47.520;19.186;2023-05-10T05:24:41;3.70;;;3.15;;
49101;SDS011;34913;47.520;19.186;2023-05-10T05:27:06;5.55;;;3.03;;
49101;SDS011;34913;47.520;19.186;2023-05-10T05:29:32;5.50;;;3.38;;
49101;SDS011;34913;47.520;19.186;2023-05-10T05:31:58;4.15;;;3.20;;
49101;SDS011;34913;47.520;19.186;2023-05-10T05:34:23;4.70;;;3.50;;
49101;SDS011;34913;47.520;19.186;2023-05-10T05:36:49;4.47;;;2.90;;
49101;SDS011;34913;47.520;19.186;2023-05-10T05:39:15;4.28;;;3.30;;
49101;SDS011;34913;47.520;19.186;2023-05-10T05:41:40;4.28;;;3.25;;
49101;SDS011;34913;47.520;19.186;2023-05-10T05:44:06;5.47;;;3.42;;
49101;SDS011;34913;47.520;19.186;2023-05-10T05:46:31;3.35;;;3.03;;
49101;SDS011;34913;47.520;19.186;2023-05-10T05:48:56;5.07;;;3.10;;
49101;SDS011;34913;47.520;19.186;2023-05-10T05:51:22;5.57;;;3.40;;
49101;SDS011;34913;47.520;19.186;2023-05-10T05:53:47;4.55;;;3.30;;
49101;SDS011;34913;47.520;19.186;2023-05-10T05:56:13;5.97;;;3.20;;
49101;SDS011;34913;47.520;19.186;2023-05-10T05:58:38;3.65;;;3.33;;
49101;SDS011;34913;47.520;19.186;2023-05-10T06:01:04;3.60;;;2.90;;
49101;SDS011;34913;47.520;19.186;2023-05-10T06:03:29;5.18;;;3.00;;
49101;SDS011;34913;47.520;19.186;2023-05-10T06:05:55;4.93;;;3.15;;
49101;SDS011;34913;47.520;19.186;2023-05-10T06:08:20;5.03;;;2.88;;
49101;SDS011;34913;47.520;19.186;2023-05-10T06:10:46;3.40;;;3.10;;
49101;SDS011;34913;47.520;19.186;2023-05-10T06:13:11;3.30;;;3.00;;
49101;SDS011;34913;47.520;19.186;2023-05-10T06:15:37;3.85;;;3.10;;
49101;SDS011;34913;47.520;19.186;2023-05-10T06:18:03;4.45;;;3.00;;
49101;SDS011;34913;47.520;19.186;2023-05-10T06:20:28;4.95;;;2.97;;
49101;SDS011;34913;47.520;19.186;2023-05-10T06:22:56;4.95;;;2.80;;
49101;SDS011;34913;47.520;19.186;2023-05-10T06:25:21;4.82;;;3.13;;
49101;SDS011;34913;47.520;19.186;2023-05-10T06:27:47;3.63;;;3.10;;
49101;SDS011;34913;47.520;19.186;2023-05-10T06:30:15;6.10;;;2.95;;
49101;SDS011;34913;47.520;19.186;2023-05-10T06:32:41;3.17;;;2.88;;
49101;SDS011;34913;47.520;19.186;2023-05-10T06:35:08;5.00;;;2.92;;
49101;SDS011;34913;47.520;19.186;2023-05-10T06:37:34;3.53;;;3.03;;
49101;SDS011;34913;47.520;19.186;2023-05-10T06:39:59;5.95;;;3.22;;
49101;SDS011;34913;47.520;19.186;2023-05-10T06:42:25;3.25;;;2.95;;
49101;SDS011;34913;47.520;19.186;2023-05-10T06:44:52;3.95;;;3.30;;
49101;SDS011;34913;47.520;19.186;2023-05-10T06:47:17;3.47;;;3.00;;
49101;SDS011;34913;47.520;19.186;2023-05-10T06:49:43;4.25;;;2.88;;
49101;SDS011;34913;47.520;19.186;2023-05-10T06:52:08;3.30;;;3.00;;
49101;SDS011;34913;47.520;19.186;2023-05-10T06:54:33;4.13;;;2.78;;
49101;SDS011;34913;47.520;19.186;2023-05-10T06:56:59;10.30;;;3.10;;
49101;SDS011;34913;47.520;19.186;2023-05-10T06:59:24;6.43;;;3.17;;
49101;SDS011;34913;47.520;19.186;2023-05-10T07:01:50;5.40;;;3.25;;
49101;SDS011;34913;47.520;19.186;2023-05-10T07:04:16;3.97;;;2.97;;
49101;SDS011;34913;47.520;19.186;2023-05-10T07:06:42;4.32;;;2.95;;
49101;SDS011;34913;47.520;19.186;2023-05-10T07:09:08;3.42;;;3.10;;
49101;SDS011;34913;47.520;19.186;2023-05-10T07:11:33;3.55;;;3.10;;
49101;SDS011;34913;47.520;19.186;2023-05-10T07:13:59;5.05;;;3.38;;
49101;SDS011;34913;47.520;19.186;2023-05-10T07:16:24;3.30;;;2.92;;
49101;SDS011;34913;47.520;19.186;2023-05-10T07:18:50;4.80;;;2.85;;
49101;SDS011;34913;47.520;19.186;2023-05-10T07:21:15;4.03;;;2.88;;
49101;SDS011;34913;47.520;19.186;2023-05-10T07:23:41;4.32;;;3.15;;
49101;SDS011;34913;47.520;19.186;2023-05-10T07:26:06;3.40;;;3.10;;
49101;SDS011;34913;47.520;19.186;2023-05-10T07:28:32;4.95;;;3.00;;
49101;SDS011;34913;47.520;19.186;2023-05-10T07:30:57;2.92;;;2.45;;
49101;SDS011;34913;47.520;19.186;2023-05-10T07:33:23;3.70;;;3.00;;
49101;SDS011;34913;47.520;19.186;2023-05-10T07:35:49;5.07;;;2.88;;
49101;SDS011;34913;47.520;19.186;2023-05-10T07:38:15;3.92;;;2.83;;
49101;SDS011;34913;47.520;19.186;2023-05-10T07:40:40;4.30;;;2.90;;
49101;SDS011;34913;47.520;19.186;2023-05-10T07:43:06;3.25;;;2.72;;
49101;SDS011;34913;47.520;19.186;2023-05-10T07:45:31;4.47;;;2.50;;
49101;SDS011;34913;47.520;19.186;2023-05-10T07:47:58;5.43;;;2.88;;
49101;SDS011;34913;47.520;19.186;2023-05-10T07:50:23;3.10;;;2.80;;
49101;SDS011;34913;47.520;19.186;2023-05-10T07:52:49;4.90;;;2.58;;
49101;SDS011;34913;47.520;19.186;2023-05-10T07:55:14;2.90;;;2.60;;
49101;SDS011;34913;47.520;19.186;2023-05-10T07:57:41;6.03;;;2.65;;
49101;SDS011;34913;47.520;19.186;2023-05-10T08:00:07;2.75;;;2.42;;
49101;SDS011;34913;47.520;19.186;2023-05-10T08:02:34;3.03;;;2.72;;
49101;SDS011;34913;47.520;19.186;2023-05-10T08:05:00;3.75;;;2.70;;
49101;SDS011;34913;47.520;19.186;2023-05-10T08:07:26;6.07;;;2.67;;
49101;SDS011;34913;47.520;19.186;2023-05-10T08:09:51;4.88;;;2.70;;
49101;SDS011;34913;47.520;19.186;2023-05-10T08:12:16;4.50;;;2.42;;
49101;SDS011;34913;47.520;19.186;2023-05-10T08:14:42;3.47;;;3.05;;
49101;SDS011;34913;47.520;19.186;2023-05-10T08:17:07;4.07;;;2.67;;
49101;SDS011;34913;47.520;19.186;2023-05-10T08:19:33;5.80;;;2.80;;
49101;SDS011;34913;47.520;19.186;2023-05-10T08:21:58;2.85;;;2.60;;
49101;SDS011;34913;47.520;19.186;2023-05-10T08:24:24;3.22;;;2.83;;
49101;SDS011;34913;47.520;19.186;2023-05-10T08:26:49;3.10;;;2.80;;
49101;SDS011;34913;47.520;19.186;2023-05-10T08:29:15;3.13;;;2.30;;
49101;SDS011;34913;47.520;19.186;2023-05-10T08:31:40;4.68;;;2.75;;
49101;SDS011;34913;47.520;19.186;2023-05-10T08:34:06;3.13;;;2.60;;
49101;SDS011;34913;47.520;19.186;2023-05-10T08:36:31;3.17;;;2.80;;
49101;SDS011;34913;47.520;19.186;2023-05-10T08:38:57;2.83;;;2.40;;
49101;SDS011;34913;47.520;19.186;2023-05-10T08:41:23;3.22;;;2.47;;
49101;SDS011;34913;47.520;19.186;2023-05-10T08:43:50;3.17;;;2.40;;
49101;SDS011;34913;47.520;19.186;2023-05-10T08:46:17;5.88;;;2.78;;
49101;SDS011;34913;47.520;19.186;2023-05-10T08:48:45;3.17;;;2.50;;
49101;SDS011;34913;47.520;19.186;2023-05-10T08:51:14;3.17;;;2.53;;
49101;SDS011;34913;47.520;19.186;2023-05-10T08:53:43;3.60;;;2.80;;
49101;SDS011;34913;47.520;19.186;2023-05-10T08:56:09;3.25;;;2.80;;
49101;SDS011;34913;47.520;19.186;2023-05-10T08:58:35;5.72;;;2.97;;
49101;SDS011;34913;47.520;19.186;2023-05-10T09:01:01;9.98;;;3.30;;
49101;SDS011;34913;47.520;19.186;2023-05-10T09:03:27;2.72;;;2.47;;
49101;SDS011;34913;47.520;19.186;2023-05-10T09:05:53;4.88;;;2.28;;
49101;SDS011;34913;47.520;19.186;2023-05-10T09:08:22;5.22;;;2.83;;
49101;SDS011;34913;47.520;19.186;2023-05-10T09:10:50;5.05;;;3.05;;
49101;SDS011;34913;47.520;19.186;2023-05-10T09:13:16;5.00;;;2.60;;
49101;SDS011;34913;47.520;19.186;2023-05-10T09:15:43;3.45;;;2.55;;
49101;SDS011;34913;47.520;19.186;2023-05-10T09:18:09;3.35;;;2.58;;
49101;SDS011;34913;47.520;19.186;2023-05-10T09:20:35;4.25;;;2.78;;
49101;SDS011;34913;47.520;19.186;2023-05-10T09:23:00;2.60;;;2.40;;
49101;SDS011;34913;47.520;19.186;2023-05-10T09:25:26;3.75;;;2.70;;
49101;SDS011;34913;47.520;19.186;2023-05-10T09:27:52;2.45;;;2.25;;
49101;SDS011;34913;47.520;19.186;2023-05-10T09:30:27;3.60;;;2.65;;
49101;SDS011;34913;47.520;19.186;2023-05-10T09:32:54;3.10;;;2.38;;
49101;SDS011;34913;47.520;19.186;2023-05-10T09:35:22;2.80;;;2.55;;
49101;SDS011;34913;47.520;19.186;2023-05-10T09:37:50;2.20;;;2.00;;
49101;SDS011;34913;47.520;19.186;2023-05-10T09:40:22;2.42;;;2.22;;
49101;SDS011;34913;47.520;19.186;2023-05-10T09:42:52;3.15;;;2.40;;
49101;SDS011;34913;47.520;19.186;2023-05-10T09:45:29;3.90;;;2.33;;
49101;SDS011;34913;47.520;19.186;2023-05-10T09:47:56;2.53;;;2.33;;
49101;SDS011;34913;47.520;19.186;2023-05-10T09:50:23;2.80;;;2.25;;
49101;SDS011;34913;47.520;19.186;2023-05-10T09:55:25;3.63;;;2.30;;
49101;SDS011;34913;47.520;19.186;2023-05-10T09:58:03;4.15;;;2.35;;
49101;SDS011;34913;47.520;19.186;2023-05-10T10:00:33;3.30;;;2.47;;
49101;SDS011;34913;47.520;19.186;2023-05-10T10:03:01;2.30;;;2.10;;
49101;SDS011;34913;47.520;19.186;2023-05-10T10:05:28;2.67;;;2.15;;
49101;SDS011;34913;47.520;19.186;2023-05-10T10:07:55;6.97;;;2.05;;
49101;SDS011;34913;47.520;19.186;2023-05-10T10:10:22;2.70;;;2.05;;
49101;SDS011;34913;47.520;19.186;2023-05-10T10:12:48;2.38;;;1.85;;
49101;SDS011;34913;47.520;19.186;2023-05-10T10:15:14;2.15;;;1.90;;
49101;SDS011;34913;47.520;19.186;2023-05-10T10:17:39;3.17;;;2.00;;
49101;SDS011;34913;47.520;19.186;2023-05-10T10:20:06;2.00;;;1.85;;
49101;SDS011;34913;47.520;19.186;2023-05-10T10:22:32;3.47;;;2.10;;
49101;SDS011;34913;47.520;19.186;2023-05-10T10:24:58;2.20;;;1.90;;
49101;SDS011;34913;47.520;19.186;2023-05-10T10:27:26;1.75;;;1.65;;
49101;SDS011;34913;47.520;19.186;2023-05-10T10:30:02;2.13;;;1.92;;
49101;SDS011;34913;47.520;19.186;2023-05-10T10:35:38;2.03;;;1.50;;
49101;SDS011;34913;47.520;19.186;2023-05-10T10:38:04;2.47;;;1.90;;
49101;SDS011;34913;47.520;19.186;2023-05-10T10:40:33;3.35;;;1.70;;
49101;SDS011;34913;47.520;19.186;2023-05-10T10:48:39;1.70;;;1.60;;
49101;SDS011;34913;47.520;19.186;2023-05-10T10:51:05;2.15;;;1.60;;
49101;SDS011;34913;47.520;19.186;2023-05-10T10:53:31;1.75;;;1.65;;
49101;SDS011;34913;47.520;19.186;2023-05-10T10:56:10;3.80;;;2.03;;
49101;SDS011;34913;47.520;19.186;2023-05-10T10:58:38;1.85;;;1.63;;
49101;SDS011;34913;47.520;19.186;2023-05-10T11:01:12;2.75;;;1.60;;
49101;SDS011;34913;47.520;19.186;2023-05-10T11:03:39;1.95;;;1.33;;
49101;SDS011;34913;47.520;19.186;2023-05-10T11:06:05;4.25;;;1.85;;
49101;SDS011;34913;47.520;19.186;2023-05-10T11:08:31;1.90;;;1.60;;
49101;SDS011;34913;47.520;19.186;2023-05-10T11:16:18;3.97;;;1.70;;
49101;SDS011;34913;47.520;19.186;2023-05-10T11:18:56;2.75;;;1.80;;
49101;SDS011;34913;47.520;19.186;2023-05-10T11:21:24;1.85;;;1.73;;
49101;SDS011;34913;47.520;19.186;2023-05-10T11:23:51;2.00;;;1.63;;
49101;SDS011;34913;47.520;19.186;2023-05-10T11:26:21;2.20;;;1.80;;
49101;SDS011;34913;47.520;19.186;2023-05-10T11:28:50;1.90;;;1.60;;
49101;SDS011;34913;47.520;19.186;2023-05-10T11:31:16;2.90;;;1.70;;
49101;SDS011;34913;47.520;19.186;2023-05-10T11:33:43;1.70;;;1.60;;
49101;SDS011;34913;47.520;19.186;2023-05-10T11:36:16;2.40;;;1.60;;
49101;SDS011;34913;47.520;19.186;2023-05-10T11:38:44;1.88;;;1.60;;
49101;SDS011;34913;47.520;19.186;2023-05-10T11:41:11;2.85;;;1.60;;
49101;SDS011;34913;47.520;19.186;2023-05-10T11:43:40;1.73;;;1.50;;
49101;SDS011;34913;47.520;19.186;2023-05-10T11:46:10;4.25;;;1.60;;
49101;SDS011;34913;47.520;19.186;2023-05-10T11:48:40;3.28;;;1.75;;
49101;SDS011;34913;47.520;19.186;2023-05-10T11:51:06;2.70;;;1.30;;
49101;SDS011;34913;47.520;19.186;2023-05-10T11:53:32;1.38;;;1.27;;
49101;SDS011;34913;47.520;19.186;2023-05-10T11:58:33;1.35;;;1.25;;
49101;SDS011;34913;47.520;19.186;2023-05-10T12:01:00;2.42;;;1.50;;
49101;SDS011;34913;47.520;19.186;2023-05-10T12:03:26;2.10;;;1.60;;
49101;SDS011;34913;47.520;19.186;2023-05-10T12:05:52;1.38;;;1.27;;
49101;SDS011;34913;47.520;19.186;2023-05-10T12:08:22;3.60;;;1.42;;
49101;SDS011;34913;47.520;19.186;2023-05-10T12:10:50;2.43;;;1.50;;
49101;SDS011;34913;47.520;19.186;2023-05-10T12:13:16;2.28;;;1.48;;
49101;SDS011;34913;47.520;19.186;2023-05-10T12:15:42;1.55;;;1.38;;
49101;SDS011;34913;47.520;19.186;2023-05-10T12:18:09;3.10;;;1.40;;
49101;SDS011;34913;47.520;19.186;2023-05-10T12:20:35;1.50;;;1.40;;
49101;SDS011;34913;47.520;19.186;2023-05-10T12:23:01;2.58;;;1.45;;
49101;SDS011;34913;47.520;19.186;2023-05-10T12:25:31;2.80;;;1.50;;
49101;SDS011;34913;47.520;19.186;2023-05-10T12:27:58;1.33;;;1.20;;
49101;SDS011;34913;47.520;19.186;2023-05-10T12:30:28;4.53;;;1.50;;
49101;SDS011;34913;47.520;19.186;2023-05-10T12:33:00;4.10;;;1.60;;
49101;SDS011;34913;47.520;19.186;2023-05-10T12:35:33;3.40;;;1.40;;
49101;SDS011;34913;47.520;19.186;2023-05-10T12:40:59;1.30;;;1.17;;
49101;SDS011;34913;47.520;19.186;2023-05-10T12:43:25;2.08;;;1.58;;
49101;SDS011;34913;47.520;19.186;2023-05-10T12:45:51;2.05;;;1.40;;
49101;SDS011;34913;47.520;19.186;2023-05-10T12:48:17;2.28;;;1.52;;
49101;SDS011;34913;47.520;19.186;2023-05-10T12:50:42;2.58;;;1.42;;
49101;SDS011;34913;47.520;19.186;2023-05-10T12:53:08;3.40;;;1.40;;
49101;SDS011;34913;47.520;19.186;2023-05-10T12:55:34;1.63;;;1.50;;
49101;SDS011;34913;47.520;19.186;2023-05-10T12:57:59;1.88;;;1.60;;
49101;SDS011;34913;47.520;19.186;2023-05-10T13:00:24;2.55;;;1.45;;
49101;SDS011;34913;47.520;19.186;2023-05-10T13:02:50;2.30;;;1.50;;
49101;SDS011;34913;47.520;19.186;2023-05-10T13:05:16;1.63;;;1.30;;
49101;SDS011;34913;47.520;19.186;2023-05-10T13:07:41;1.75;;;1.30;;
49101;SDS011;34913;47.520;19.186;2023-05-10T13:10:08;1.50;;;1.40;;
49101;SDS011;34913;47.520;19.186;2023-05-10T13:12:34;1.30;;;1.20;;
49101;SDS011;34913;47.520;19.186;2023-05-10T13:15:00;3.08;;;1.40;;
49101;SDS011;34913;47.520;19.186;2023-05-10T13:17:26;4.72;;;1.33;;
49101;SDS011;34913;47.520;19.186;2023-05-10T13:19:51;4.35;;;1.30;;
49101;SDS011;34913;47.520;19.186;2023-05-10T13:22:16;2.47;;;1.17;;
49101;SDS011;34913;47.520;19.186;2023-05-10T13:24:42;2.25;;;1.30;;
49101;SDS011;34913;47.520;19.186;2023-05-10T13:27:07;2.42;;;1.30;;
49101;SDS011;34913;47.520;19.186;2023-05-10T13:29:33;2.78;;;1.20;;
49101;SDS011;34913;47.520;19.186;2023-05-10T13:31:58;1.50;;;1.35;;
49101;SDS011;34913;47.520;19.186;2023-05-10T13:34:24;4.85;;;1.10;;
49101;SDS011;34913;47.520;19.186;2023-05-10T13:36:50;2.45;;;1.30;;
49101;SDS011;34913;47.520;19.186;2023-05-10T13:39:15;2.65;;;1.20;;
49101;SDS011;34913;47.520;19.186;2023-05-10T13:41:41;2.08;;;1.08;;
49101;SDS011;34913;47.520;19.186;2023-05-10T13:44:07;1.65;;;1.08;;
49101;SDS011;34913;47.520;19.186;2023-05-10T13:46:33;1.30;;;1.20;;
49101;SDS011;34913;47.520;19.186;2023-05-10T13:48:58;1.50;;;1.02;;
49101;SDS011;34913;47.520;19.186;2023-05-10T13:51:24;2.63;;;1.20;;
49101;SDS011;34913;47.520;19.186;2023-05-10T13:53:49;1.30;;;1.20;;
49101;SDS011;34913;47.520;19.186;2023-05-10T13:56:15;2.15;;;1.10;;
49101;SDS011;34913;47.520;19.186;2023-05-10T13:58:40;1.40;;;1.30;;
49101;SDS011;34913;47.520;19.186;2023-05-10T14:01:06;1.67;;;1.30;;
49101;SDS011;34913;47.520;19.186;2023-05-10T14:03:31;2.05;;;1.10;;
49101;SDS011;34913;47.520;19.186;2023-05-10T14:05:57;1.17;;;0.90;;
49101;SDS011;34913;47.520;19.186;2023-05-10T14:08:23;1.83;;;1.17;;
49101;SDS011;34913;47.520;19.186;2023-05-10T14:10:48;1.63;;;1.20;;
49101;SDS011;34913;47.520;19.186;2023-05-10T14:13:14;1.20;;;1.10;;
49101;SDS011;34913;47.520;19.186;2023-05-10T14:15:40;2.08;;;1.25;;
49101;SDS011;34913;47.520;19.186;2023-05-10T14:18:06;1.67;;;1.00;;
49101;SDS011;34913;47.520;19.186;2023-05-10T14:20:31;2.60;;;1.40;;
49101;SDS011;34913;47.520;19.186;2023-05-10T14:22:58;2.30;;;1.50;;
49101;SDS011;34913;47.520;19.186;2023-05-10T14:25:24;3.17;;;1.20;;
49101;SDS011;34913;47.520;19.186;2023-05-10T14:27:50;6.57;;;1.58;;
49101;SDS011;34913;47.520;19.186;2023-05-10T14:30:16;2.67;;;1.23;;
49101;SDS011;34913;47.520;19.186;2023-05-10T14:32:41;5.03;;;1.20;;
49101;SDS011;34913;47.520;19.186;2023-05-10T14:35:07;3.95;;;1.10;;
49101;SDS011;34913;47.520;19.186;2023-05-10T14:37:33;2.95;;;1.30;;
49101;SDS011;34913;47.520;19.186;2023-05-10T14:39:58;1.25;;;1.10;;
49101;SDS011;34913;47.520;19.186;2023-05-10T14:42:24;2.53;;;1.10;;
49101;SDS011;34913;47.520;19.186;2023-05-10T14:44:49;2.22;;;1.30;;
49101;SDS011;34913;47.520;19.186;2023-05-10T14:47:14;2.60;;;1.08;;
49101;SDS011;34913;47.520;19.186;2023-05-10T14:49:40;5.28;;;1.00;;
49101;SDS011;34913;47.520;19.186;2023-05-10T14:52:06;1.70;;;0.93;;
49101;SDS011;34913;47.520;19.186;2023-05-10T14:54:31;1.33;;;0.90;;
49101;SDS011;34913;47.520;19.186;2023-05-10T14:56:58;2.05;;;1.10;;
49101;SDS011;34913;47.520;19.186;2023-05-10T14:59:25;1.60;;;0.95;;
49101;SDS011;34913;47.520;19.186;2023-05-10T15:01:50;3.08;;;1.48;;
49101;SDS011;34913;47.520;19.186;2023-05-10T15:04:16;2.08;;;1.00;;
49101;SDS011;34913;47.520;19.186;2023-05-10T15:06:41;3.08;;;0.88;;
49101;SDS011;34913;47.520;19.186;2023-05-10T15:09:07;0.85;;;0.80;;